Time;durP1;ratioP1;P1;durP2;ratioP2;P2;SDS_P1;SDS_P2;PMS_P1;PMS_P2;Temp;Humidity;BMP_temperature;BMP_pressure;BME280_temperature;BME280_humidity;BME280_pressure;Samples;Min_cycle;Max_cycle;Signal;HPM_P1;HPM_P2
2023/04/14 00:02:12;;;;;;;15.00;11.10;;;8.40;99.90;;;;;;12792821;23;20310;-86
2023/04/14 00:07:15;;;;;;;14.67;10.50;;;8.50;99.90;;;;;;12792767;23;20206;-86
2023/04/14 00:12:17;;;;;;;18.67;10.77;;;8.40;99.90;;;;;;12793526;23;20172;-86
2023/04/14 00:17:20;;;;;;;19.13;12.63;;;8.40;99.90;;;;;;12792870;23;20183;-86
2023/04/14 00:22:22;;;;;;;16.70;10.40;;;8.50;99.90;;;;;;12791585;23;20195;-86
2023/04/14 00:27:25;;;;;;;15.13;11.33;;;8.40;99.90;;;;;;12793013;23;20230;-86
2023/04/14 00:32:27;;;;;;;16.13;12.00;;;8.40;99.90;;;;;;12792969;23;20214;-86
2023/04/14 00:37:30;;;;;;;18.03;12.20;;;8.50;99.90;;;;;;12792539;23;20663;-86
2023/04/14 00:42:42;;;;;;;17.00;13.20;;;8.50;99.90;;;;;;12765157;23;20217;-86
2023/04/14 00:47:49;;;;;;;19.83;14.30;;;8.50;99.90;;;;;;12810850;23;20219;-86
2023/04/14 00:52:52;;;;;;;16.33;12.60;;;8.50;99.90;;;;;;12765882;23;20191;-86
2023/04/14 00:57:55;;;;;;;20.57;15.30;;;8.50;99.90;;;;;;12764380;23;20575;-86
2023/04/14 01:02:57;;;;;;;17.53;13.40;;;8.50;99.90;;;;;;12810494;23;20183;-86
2023/04/14 01:08:02;;;;;;;19.50;15.60;;;8.50;99.90;;;;;;12792643;23;20168;-86
2023/04/14 01:13:45;;;;;;;21.33;16.77;;;8.60;99.90;;;;;;12789962;23;20187;-86
2023/04/14 01:19:17;;;;;;;21.47;16.20;;;8.50;99.90;;;;;;12774768;23;20634;-85
2023/04/14 01:24:38;;;;;;;24.30;14.70;;;8.50;99.90;;;;;;12742488;23;20194;-86
2023/04/14 01:30:17;;;;;;;24.17;17.50;;;8.50;99.90;;;;;;12792571;23;20168;-86
2023/04/14 01:35:43;;;;;;;24.77;17.63;;;8.50;99.90;;;;;;12764240;23;20187;-86
2023/04/14 01:40:50;;;;;;;25.57;16.97;;;8.50;99.90;;;;;;12791072;23;20185;-86
2023/04/14 01:45:57;;;;;;;18.37;12.47;;;8.50;99.90;;;;;;12764193;23;20235;-86
2023/04/14 01:51:02;;;;;;;22.43;16.13;;;8.60;99.90;;;;;;12806583;23;20198;-86
2023/04/14 01:56:08;;;;;;;22.30;16.97;;;8.60;99.90;;;;;;12764418;23;20236;-86
2023/04/14 02:01:11;;;;;;;21.37;15.57;;;8.60;99.90;;;;;;12763851;23;20204;-86
2023/04/14 02:06:14;;;;;;;20.73;15.57;;;8.70;99.90;;;;;;12764934;23;20205;-86
2023/04/14 02:11:19;;;;;;;18.93;13.23;;;8.70;99.90;;;;;;12766398;23;20526;-86
2023/04/14 02:16:23;;;;;;;23.17;15.67;;;8.70;99.90;;;;;;12794798;23;20174;-86
2023/04/14 02:21:27;;;;;;;18.67;14.10;;;8.60;99.90;;;;;;12795046;23;20171;-86
2023/04/14 02:26:31;;;;;;;20.77;14.50;;;8.70;99.90;;;;;;12768525;23;20273;-86
2023/04/14 02:31:37;;;;;;;22.33;14.33;;;8.70;99.90;;;;;;12794957;23;20198;-86
2023/04/14 02:36:55;;;;;;;16.73;12.10;;;8.70;99.90;;;;;;12768102;23;20313;-86
2023/04/14 02:42:04;;;;;;;17.73;12.80;;;8.70;99.90;;;;;;12813963;23;20174;-86
2023/04/14 02:47:09;;;;;;;20.97;12.80;;;8.80;99.90;;;;;;12813105;23;20192;-86
2023/04/14 02:52:19;;;;;;;17.07;13.20;;;8.80;99.90;;;;;;12769180;23;20241;-86
2023/04/14 02:57:24;;;;;;;17.37;12.67;;;8.70;99.90;;;;;;12767108;23;20182;-86
2023/04/14 03:02:27;;;;;;;19.00;13.27;;;8.70;99.90;;;;;;12767813;23;20208;-86
2023/04/14 03:07:38;;;;;;;21.40;13.13;;;8.70;99.90;;;;;;12767856;23;20571;-86
2023/04/14 03:12:42;;;;;;;18.13;13.27;;;8.70;99.90;;;;;;12793135;23;20206;-86
2023/04/14 03:17:52;;;;;;;14.70;11.53;;;8.70;99.90;;;;;;12767318;23;20257;-86
2023/04/14 03:23:00;;;;;;;17.20;12.90;;;8.80;99.90;;;;;;12767069;23;20191;-86
2023/04/14 03:28:10;;;;;;;17.20;12.60;;;8.70;99.90;;;;;;12767286;23;20245;-86
2023/04/14 03:33:19;;;;;;;18.43;13.30;;;8.60;99.90;;;;;;12767256;23;20245;-86
2023/04/14 03:38:26;;;;;;;18.23;12.47;;;8.60;99.90;;;;;;12799468;23;20171;-86
2023/04/14 03:43:32;;;;;;;19.17;13.13;;;8.60;99.90;;;;;;12767264;23;20206;-86
2023/04/14 03:48:43;;;;;;;18.77;12.80;;;8.60;99.90;;;;;;12766499;23;20575;-86
2023/04/14 03:53:50;;;;;;;18.17;12.37;;;8.60;99.90;;;;;;12765571;23;20189;-86
2023/04/14 03:58:56;;;;;;;17.10;11.77;;;8.50;99.90;;;;;;12765879;23;20205;-86
2023/04/14 04:04:01;;;;;;;14.70;11.07;;;8.50;99.90;;;;;;12765818;23;20206;-86
2023/04/14 04:09:06;;;;;;;16.53;12.50;;;8.60;99.90;;;;;;12765519;23;20183;-85
2023/04/14 04:14:09;;;;;;;14.67;11.63;;;8.70;99.90;;;;;;12765526;23;20210;-86
2023/04/14 04:19:14;;;;;;;16.70;12.30;;;8.80;99.90;;;;;;12765194;23;20520;-86
2023/04/14 04:24:20;;;;;;;16.83;12.67;;;8.70;99.90;;;;;;12765393;23;20194;-86
2023/04/14 04:29:25;;;;;;;18.63;12.27;;;8.70;99.90;;;;;;12765745;23;20179;-86
2023/04/14 04:34:31;;;;;;;20.43;13.57;;;8.80;99.90;;;;;;12764449;23;20183;-86
2023/04/14 04:39:34;;;;;;;17.33;12.57;;;8.70;99.90;;;;;;12765838;23;20612;-86
2023/04/14 04:44:37;;;;;;;19.67;13.23;;;8.70;99.90;;;;;;12789891;23;20199;-86
2023/04/14 04:49:40;;;;;;;18.73;13.27;;;8.80;99.90;;;;;;12765188;23;20178;-86
2023/04/14 04:54:42;;;;;;;17.13;11.97;;;8.80;99.90;;;;;;12766563;23;20179;-86
2023/04/14 04:59:45;;;;;;;17.00;12.27;;;8.80;99.90;;;;;;12765462;23;20207;-86
2023/04/14 05:04:47;;;;;;;16.83;11.90;;;8.90;99.90;;;;;;12790685;23;20235;-87
2023/04/14 05:09:50;;;;;;;16.50;12.53;;;8.90;99.90;;;;;;12791122;23;20180;-86
2023/04/14 05:14:53;;;;;;;18.60;14.37;;;8.90;99.90;;;;;;12809278;23;20179;-86
2023/04/14 05:19:56;;;;;;;20.03;14.60;;;8.80;99.90;;;;;;12763968;23;20186;-88
2023/04/14 05:24:59;;;;;;;12.53;9.97;;;8.70;99.90;;;;;;12790252;23;20258;-87
2023/04/14 05:30:02;;;;;;;21.43;13.47;;;8.70;99.90;;;;;;12790275;23;20178;-87
2023/04/14 05:35:05;;;;;;;15.43;12.47;;;8.80;99.90;;;;;;12788994;23;20183;-87
2023/04/14 05:40:08;;;;;;;16.17;12.30;;;8.70;99.90;;;;;;12763987;23;20186;-86
2023/04/14 05:45:11;;;;;;;22.30;13.47;;;8.70;99.90;;;;;;12762683;23;20191;-86
2023/04/14 05:50:15;;;;;;;16.27;13.50;;;8.70;99.90;;;;;;12789382;23;20171;-86
2023/04/14 05:55:18;;;;;;;19.30;13.77;;;8.70;99.90;;;;;;12789315;23;20182;-86
2023/04/14 06:00:22;;;;;;;18.40;14.27;;;9.00;99.90;;;;;;12788122;23;20233;-86
2023/04/14 06:05:24;;;;;;;18.80;13.27;;;9.20;99.90;;;;;;12763057;23;20199;-86
2023/04/14 06:10:27;;;;;;;23.10;15.20;;;9.20;99.90;;;;;;12805614;23;20168;-86
2023/04/14 06:15:30;;;;;;;19.90;14.10;;;9.20;99.90;;;;;;12788730;23;20197;-86
2023/04/14 06:20:34;;;;;;;30.00;18.10;;;9.20;99.90;;;;;;12807218;23;20199;-86
2023/04/14 06:25:37;;;;;;;22.27;16.40;;;9.20;99.90;;;;;;12790892;23;20188;-86
2023/04/14 06:30:40;;;;;;;21.87;15.27;;;9.30;99.90;;;;;;12789619;23;20182;-86
2023/04/14 06:35:43;;;;;;;22.00;15.23;;;9.40;99.90;;;;;;12790132;23;20229;-86
2023/04/14 06:40:46;;;;;;;27.07;19.07;;;9.40;99.90;;;;;;12782045;23;20222;-87
2023/04/14 06:45:49;;;;;;;29.40;20.17;;;9.40;99.90;;;;;;12789440;23;20203;-86
2023/04/14 06:50:55;;;;;;;28.67;19.87;;;9.50;99.90;;;;;;12789116;23;20187;-86
2023/04/14 06:55:58;;;;;;;27.47;17.93;;;9.40;99.90;;;;;;12810777;23;20171;-87
2023/04/14 07:01:02;;;;;;;31.03;19.70;;;9.50;99.90;;;;;;12768305;23;20203;-85
2023/04/14 07:06:06;;;;;;;31.53;21.40;;;9.60;99.90;;;;;;12792442;23;20542;-86
2023/04/14 07:11:10;;;;;;;31.50;24.00;;;9.70;99.90;;;;;;12793999;23;20223;-87
2023/04/14 07:16:13;;;;;;;33.33;25.37;;;9.50;99.90;;;;;;12767332;23;20186;-87
2023/04/14 07:21:16;;;;;;;34.90;25.30;;;9.20;99.90;;;;;;12810175;23;20231;-87
2023/04/14 07:26:18;;;;;;;22.20;15.73;;;9.20;99.90;;;;;;12792973;23;20187;-86
2023/04/14 07:31:21;;;;;;;39.47;24.67;;;9.30;99.90;;;;;;12791093;23;20237;-87
2023/04/14 07:36:24;;;;;;;39.63;26.23;;;9.50;99.90;;;;;;12806973;23;20526;-88
2023/04/14 07:41:27;;;;;;;34.17;24.33;;;9.70;99.90;;;;;;12790829;23;20184;-86
2023/04/14 07:46:30;;;;;;;29.37;22.53;;;9.90;99.90;;;;;;12791488;23;20265;-87
2023/04/14 07:51:32;;;;;;;30.00;23.37;;;10.00;99.90;;;;;;12765118;23;20230;-86
2023/04/14 07:56:35;;;;;;;38.40;25.43;;;10.40;99.90;;;;;;12809114;23;20234;-86
2023/04/14 08:01:37;;;;;;;38.10;25.13;;;10.50;99.90;;;;;;12764045;23;20203;-86
2023/04/14 08:06:40;;;;;;;34.47;23.67;;;10.70;99.90;;;;;;12791456;23;20195;-86
2023/04/14 08:11:42;;;;;;;20.97;13.57;;;10.80;99.90;;;;;;12791821;23;20658;-87
2023/04/14 08:16:46;;;;;;;17.93;12.17;;;11.10;99.90;;;;;;12790820;23;20643;-87
2023/04/14 08:21:50;;;;;;;28.83;20.50;;;11.20;99.90;;;;;;12790103;23;20298;-87
2023/04/14 08:26:53;;;;;;;25.17;18.90;;;11.40;99.90;;;;;;12791050;23;20234;-86
2023/04/14 08:31:56;;;;;;;26.30;18.60;;;11.60;99.90;;;;;;12763606;23;20756;-86
2023/04/14 08:37:01;;;;;;;23.13;17.27;;;11.70;99.90;;;;;;12804079;23;20620;-88
2023/04/14 08:42:05;;;;;;;29.57;18.87;;;11.70;99.90;;;;;;12764340;23;20168;-87
2023/04/14 08:47:09;;;;;;;18.37;13.33;;;11.80;99.90;;;;;;12764701;23;20203;-87
2023/04/14 08:52:12;;;;;;;34.67;23.27;;;11.90;99.90;;;;;;12789390;23;20512;-87
2023/04/14 08:57:18;;;;;;;19.43;13.73;;;12.10;99.90;;;;;;12791250;23;20172;-87
2023/04/14 09:02:21;;;;;;;27.23;20.47;;;12.00;99.90;;;;;;12791621;23;20195;-87
2023/04/14 09:07:23;;;;;;;18.93;11.37;;;12.20;99.90;;;;;;12789805;23;20250;-87
2023/04/14 09:12:27;;;;;;;27.87;20.67;;;12.20;99.90;;;;;;12807069;23;20168;-87
2023/04/14 09:17:30;;;;;;;18.57;13.83;;;12.20;99.90;;;;;;12789909;23;20229;-87
2023/04/14 09:22:33;;;;;;;23.93;17.67;;;12.40;99.90;;;;;;12788981;23;20183;-87
2023/04/14 09:27:36;;;;;;;20.87;14.67;;;12.30;99.90;;;;;;12738533;23;20257;-87
2023/04/14 09:32:39;;;;;;;24.90;18.10;;;12.40;99.90;;;;;;12789954;23;20226;-87
2023/04/14 09:37:45;;;;;;;26.40;19.00;;;12.50;99.90;;;;;;12774787;23;20627;-87
2023/04/14 09:42:48;;;;;;;26.47;17.37;;;12.60;99.90;;;;;;12789361;23;20184;-87
2023/04/14 09:48:05;;;;;;;23.17;16.00;;;12.70;99.90;;;;;;12807175;23;20236;-86
2023/04/14 09:53:07;;;;;;;14.03;10.80;;;12.90;99.90;;;;;;12798629;23;20705;-86
2023/04/14 09:58:10;;;;;;;24.37;19.23;;;13.10;99.90;;;;;;12788711;23;20258;-88
2023/04/14 10:03:13;;;;;;;21.40;13.93;;;13.20;99.90;;;;;;12792898;23;20171;-94
2023/04/14 10:08:15;;;;;;;19.00;15.03;;;13.20;99.90;;;;;;12766906;23;20204;-96
2023/04/14 10:13:18;;;;;;;18.73;14.63;;;13.70;99.90;;;;;;12794073;23;20167;-96
2023/04/14 10:18:21;;;;;;;25.70;17.97;;;14.10;99.90;;;;;;12795298;23;20175;-96
2023/04/14 10:23:24;;;;;;;21.17;13.53;;;14.40;99.90;;;;;;12795863;23;20242;-95
2023/04/14 10:28:28;;;;;;;17.23;13.83;;;14.70;99.90;;;;;;12770823;23;20219;-96
2023/04/14 10:33:32;;;;;;;24.40;19.30;;;14.80;99.90;;;;;;12799085;23;20175;-96
2023/04/14 10:38:42;;;;;;;22.57;17.60;;;15.00;99.90;;;;;;12781576;23;20223;-96
2023/04/14 10:43:45;;;;;;;21.90;13.93;;;15.60;99.90;;;;;;12773340;23;20183;-96
2023/04/14 10:48:48;;;;;;;18.40;12.00;;;15.50;99.90;;;;;;12800167;23;20522;-96
2023/04/14 10:53:54;;;;;;;24.43;16.97;;;15.80;99.90;;;;;;12774299;23;20207;-96
2023/04/14 10:58:57;;;;;;;11.80;7.70;;;16.00;99.90;;;;;;12806657;23;20242;-89
2023/04/14 11:04:21;;;;;;;13.33;10.77;;;16.20;99.90;;;;;;12740207;23;20250;-88
2023/04/14 11:09:37;;;;;;;24.50;16.57;;;16.40;99.90;;;;;;12764901;23;20572;-88
2023/04/14 11:14:40;;;;;;;13.27;9.87;;;16.50;99.90;;;;;;12808596;23;20238;-89
2023/04/14 11:19:44;;;;;;;18.67;10.60;;;16.70;99.90;;;;;;12790723;23;20639;-89
2023/04/14 11:24:47;;;;;;;13.27;10.23;;;17.00;99.90;;;;;;12790398;23;20191;-89
2023/04/14 11:29:53;;;;;;;14.17;11.77;;;17.20;98.40;;;;;;12764936;23;20233;-88
2023/04/14 11:35:06;;;;;;;11.70;7.93;;;17.50;95.70;;;;;;12790222;23;20245;-89
2023/04/14 11:40:13;;;;;;;9.03;8.03;;;17.60;97.50;;;;;;12763169;23;20503;-88
2023/04/14 11:45:15;;;;;;;13.17;9.03;;;17.70;94.00;;;;;;12789630;23;20203;-89
2023/04/14 11:50:18;;;;;;;12.23;9.87;;;17.80;97.60;;;;;;12765266;23;20257;-89
2023/04/14 11:55:22;;;;;;;15.73;10.33;;;17.80;94.90;;;;;;12791612;23;20172;-89
2023/04/14 12:00:26;;;;;;;9.30;8.23;;;17.80;95.30;;;;;;12763125;23;20273;-89
2023/04/14 12:05:30;;;;;;;15.80;11.70;;;17.90;96.40;;;;;;12790108;23;20205;-89
2023/04/14 12:10:33;;;;;;;10.80;7.90;;;17.90;91.20;;;;;;12764875;23;20184;-89
2023/04/14 12:15:38;;;;;;;11.20;8.43;;;17.80;93.70;;;;;;12789889;23;20185;-90
2023/04/14 12:20:54;;;;;;;5.87;4.93;;;17.80;94.50;;;;;;12806424;23;20752;-90
2023/04/14 12:25:56;;;;;;;8.13;6.73;;;17.90;94.40;;;;;;12761122;23;20236;-90
2023/04/14 12:31:06;;;;;;;10.77;9.20;;;18.00;96.70;;;;;;12788837;23;20777;-88
2023/04/14 12:36:12;;;;;;;10.60;9.13;;;18.10;91.70;;;;;;12807229;23;20170;-88
2023/04/14 12:41:21;;;;;;;8.30;7.00;;;18.10;92.70;;;;;;12763495;23;20184;-89
2023/04/14 12:46:25;;;;;;;7.83;6.40;;;18.10;87.80;;;;;;12738462;23;20867;-88
2023/04/14 12:51:28;;;;;;;10.83;7.10;;;18.20;93.10;;;;;;12789681;23;20186;-88
2023/04/14 12:56:30;;;;;;;10.53;8.40;;;18.20;92.70;;;;;;12763761;23;20195;-88
2023/04/14 13:01:32;;;;;;;11.07;8.90;;;18.20;91.30;;;;;;12788870;23;20520;-88
2023/04/14 13:06:35;;;;;;;13.37;7.60;;;18.10;87.40;;;;;;12789700;23;20576;-89
2023/04/14 13:11:37;;;;;;;9.17;6.93;;;18.00;92.80;;;;;;12789223;23;20550;-88
2023/04/14 13:16:40;;;;;;;8.17;7.03;;;17.90;91.00;;;;;;12761760;23;20250;-88
2023/04/14 13:21:43;;;;;;;13.43;6.60;;;18.00;86.90;;;;;;12789557;23;20560;-88
2023/04/14 13:26:45;;;;;;;7.17;5.93;;;18.10;90.80;;;;;;12788737;23;20194;-89
2023/04/14 13:31:48;;;;;;;8.60;5.80;;;18.10;90.30;;;;;;12761525;23;20505;-89
2023/04/14 13:36:50;;;;;;;7.67;5.97;;;18.00;92.10;;;;;;12762662;23;20583;-89
2023/04/14 13:41:53;;;;;;;8.53;6.83;;;18.10;79.90;;;;;;12789353;23;20230;-89
2023/04/14 13:46:55;;;;;;;8.83;6.80;;;18.20;77.50;;;;;;12762923;23;20267;-89
2023/04/14 13:51:59;;;;;;;6.70;5.67;;;18.30;77.80;;;;;;12762784;23;20216;-88
2023/04/14 13:57:02;;;;;;;6.47;5.80;;;18.40;85.30;;;;;;12762121;23;20181;-89
2023/04/14 14:02:05;;;;;;;7.23;6.23;;;18.30;91.30;;;;;;12761906;23;20270;-89
2023/04/14 14:07:08;;;;;;;9.43;6.90;;;18.20;91.90;;;;;;12804363;23;20220;-88
2023/04/14 14:12:11;;;;;;;8.23;6.53;;;18.20;88.20;;;;;;12763116;23;20216;-87
2023/04/14 14:17:13;;;;;;;8.90;6.83;;;18.20;71.10;;;;;;12763837;23;20172;-87
2023/04/14 14:22:16;;;;;;;8.23;6.80;;;18.10;84.10;;;;;;12786074;23;20187;-87
2023/04/14 14:27:18;;;;;;;9.73;7.13;;;18.10;89.10;;;;;;12790072;23;20193;-87
2023/04/14 14:32:20;;;;;;;7.83;5.60;;;17.90;79.80;;;;;;12761539;23;20247;-87
2023/04/14 14:37:23;;;;;;;12.17;8.73;;;17.90;90.80;;;;;;12759796;23;20240;-88
2023/04/14 14:42:26;;;;;;;7.90;6.87;;;17.80;79.90;;;;;;12762462;23;20211;-87
2023/04/14 14:47:29;;;;;;;9.07;7.50;;;17.70;90.50;;;;;;12788352;23;20246;-87
2023/04/14 14:52:35;;;;;;;7.43;6.13;;;17.60;85.20;;;;;;12763132;23;20658;-88
2023/04/14 14:57:37;;;;;;;8.40;6.90;;;17.60;77.40;;;;;;12786246;23;20183;-88
2023/04/14 15:02:40;;;;;;;8.30;6.83;;;17.70;81.20;;;;;;12786584;23;20276;-88
2023/04/14 15:07:43;;;;;;;8.47;5.83;;;17.60;78.30;;;;;;12790776;23;20520;-87
2023/04/14 15:12:46;;;;;;;10.13;7.50;;;17.70;80.20;;;;;;12791288;23;20500;-88
2023/04/14 15:17:48;;;;;;;8.07;7.27;;;17.70;81.70;;;;;;12810901;23;20509;-89
2023/04/14 15:22:51;;;;;;;6.07;5.27;;;17.60;82.30;;;;;;12791468;23;20258;-89
2023/04/14 15:27:54;;;;;;;12.50;8.30;;;17.50;89.80;;;;;;12793716;23;20191;-89
2023/04/14 15:32:57;;;;;;;13.30;10.77;;;17.30;88.10;;;;;;12766111;23;20448;-89
2023/04/14 15:37:59;;;;;;;6.70;4.33;;;17.10;85.90;;;;;;12794065;23;20177;-89
2023/04/14 15:43:02;;;;;;;4.93;4.50;;;17.40;95.00;;;;;;12767041;23;20171;-88
2023/04/14 15:48:04;;;;;;;9.90;5.63;;;17.70;94.80;;;;;;12767271;23;20204;-88
2023/04/14 15:53:07;;;;;;;13.67;12.07;;;17.70;94.80;;;;;;12792569;23;20186;-88
2023/04/14 15:58:10;;;;;;;14.50;12.27;;;17.20;88.50;;;;;;12793178;23;20204;-88
2023/04/14 16:03:13;;;;;;;14.43;11.50;;;16.50;91.90;;;;;;12793107;23;20184;-88
2023/04/14 16:08:17;;;;;;;8.83;7.93;;;16.20;93.20;;;;;;12767226;23;20196;-88
2023/04/14 16:13:20;;;;;;;15.13;13.43;;;16.30;95.60;;;;;;12793120;23;20213;-83
2023/04/14 16:18:23;;;;;;;18.20;13.57;;;16.20;94.20;;;;;;12794095;23;20168;-82
2023/04/14 16:23:26;;;;;;;13.87;10.80;;;16.00;95.20;;;;;;12793415;23;20650;-82
2023/04/14 16:28:29;;;;;;;16.03;10.97;;;16.10;96.20;;;;;;12791369;23;20628;-84
2023/04/14 16:33:31;;;;;;;22.63;11.57;;;16.00;95.30;;;;;;12767040;23;20168;-83
2023/04/14 16:38:34;;;;;;;18.03;12.20;;;16.10;96.40;;;;;;12792173;23;20188;-84
2023/04/14 16:43:37;;;;;;;34.33;13.83;;;16.10;95.40;;;;;;12793531;23;20702;-84
2023/04/14 16:48:40;;;;;;;24.37;12.50;;;16.10;96.50;;;;;;12792672;23;20201;-84
2023/04/14 16:53:43;;;;;;;20.63;14.33;;;16.10;97.10;;;;;;12792762;23;20202;-84
2023/04/14 16:58:45;;;;;;;21.17;14.20;;;16.10;96.00;;;;;;12792068;23;20208;-84
2023/04/14 17:03:48;;;;;;;23.17;11.53;;;15.90;96.30;;;;;;12792244;23;20174;-83
2023/04/14 17:08:51;;;;;;;16.53;12.63;;;15.80;97.20;;;;;;12765471;23;20227;-83
2023/04/14 17:13:53;;;;;;;17.37;13.03;;;15.70;96.30;;;;;;12792574;23;20168;-83
2023/04/14 17:18:57;;;;;;;23.30;12.33;;;15.50;97.10;;;;;;12791813;23;20171;-83
2023/04/14 17:23:59;;;;;;;26.93;9.60;;;15.40;98.00;;;;;;12790557;23;20192;-83
2023/04/14 17:29:03;;;;;;;24.50;14.83;;;15.60;98.80;;;;;;12791680;23;20187;-83
2023/04/14 17:34:09;;;;;;;11.87;10.63;;;15.70;98.00;;;;;;12765409;23;20230;-83
2023/04/14 17:39:12;;;;;;;18.03;11.33;;;15.40;96.10;;;;;;12764588;23;20223;-83
2023/04/14 17:44:15;;;;;;;25.60;15.87;;;15.30;97.60;;;;;;12790946;23;20214;-83
2023/04/14 17:49:19;;;;;;;16.27;13.30;;;15.20;99.30;;;;;;12809460;23;20196;-83
2023/04/14 17:54:22;;;;;;;17.57;13.83;;;15.10;98.10;;;;;;12790264;23;20864;-84
2023/04/14 17:59:25;;;;;;;13.07;10.97;;;15.10;98.10;;;;;;12790513;23;20232;-83
2023/04/14 18:04:27;;;;;;;13.73;10.93;;;15.00;98.00;;;;;;12792230;23;20500;-83
2023/04/14 18:09:30;;;;;;;12.50;11.27;;;14.90;98.60;;;;;;12789183;23;20239;-84
2023/04/14 18:14:32;;;;;;;12.30;9.93;;;14.70;99.40;;;;;;12790384;23;20199;-84
2023/04/14 18:19:35;;;;;;;9.60;8.60;;;14.40;98.80;;;;;;12764658;23;20195;-84
2023/04/14 18:24:37;;;;;;;15.70;10.60;;;14.40;99.20;;;;;;12765668;23;20718;-84
2023/04/14 18:29:43;;;;;;;13.07;11.57;;;14.30;99.90;;;;;;12790422;23;20246;-85
2023/04/14 18:34:45;;;;;;;24.23;14.87;;;14.50;99.90;;;;;;12789321;23;20519;-86
2023/04/14 18:39:48;;;;;;;19.93;14.37;;;14.30;99.90;;;;;;12790792;23;20187;-85
2023/04/14 18:44:52;;;;;;;18.87;15.13;;;14.40;99.90;;;;;;12765062;23;20647;-84
2023/04/14 18:49:54;;;;;;;17.67;13.17;;;14.50;99.90;;;;;;12790648;23;20695;-83
2023/04/14 18:54:57;;;;;;;15.17;10.30;;;14.50;99.90;;;;;;12791591;23;20215;-83
2023/04/14 18:59:59;;;;;;;13.07;10.67;;;14.50;99.90;;;;;;12791111;23;20271;-83
2023/04/14 19:05:02;;;;;;;13.13;10.63;;;14.50;99.80;;;;;;12794270;23;20226;-83
2023/04/14 19:10:06;;;;;;;16.30;14.30;;;14.40;99.90;;;;;;12767070;23;20586;-83
2023/04/14 19:15:09;;;;;;;16.53;11.27;;;14.20;99.90;;;;;;12794134;23;20183;-84
2023/04/14 19:20:13;;;;;;;14.80;9.87;;;14.30;99.90;;;;;;12792789;23;20614;-85
2023/04/14 19:25:15;;;;;;;15.93;11.77;;;14.50;99.90;;;;;;12789557;23;20262;-83
2023/04/14 19:30:18;;;;;;;18.17;12.77;;;14.60;99.90;;;;;;12791300;23;20196;-84
2023/04/14 19:35:21;;;;;;;14.13;12.07;;;14.70;99.90;;;;;;12790106;23;20214;-84
2023/04/14 19:40:24;;;;;;;10.00;8.50;;;14.70;99.90;;;;;;12788273;23;20215;-84
2023/04/14 19:45:26;;;;;;;12.20;8.90;;;14.90;98.20;;;;;;12807176;23;20238;-84
2023/04/14 19:50:28;;;;;;;14.30;9.73;;;15.10;97.90;;;;;;12788420;23;20196;-84
2023/04/14 19:55:32;;;;;;;13.20;10.30;;;15.30;98.60;;;;;;12790233;23;20231;-84
2023/04/14 20:00:39;;;;;;;15.20;9.90;;;15.40;96.70;;;;;;12787194;23;20614;-84
2023/04/14 20:05:42;;;;;;;12.67;9.50;;;15.60;97.60;;;;;;12805564;23;20172;-84
2023/04/14 20:10:49;;;;;;;12.37;9.20;;;15.70;97.80;;;;;;12761746;23;20247;-84
2023/04/14 20:15:53;;;;;;;13.23;9.50;;;15.60;97.10;;;;;;12762993;23;20705;-84
2023/04/14 20:20:57;;;;;;;13.93;10.40;;;15.40;97.00;;;;;;12808878;23;20173;-84
2023/04/14 20:26:00;;;;;;;14.13;8.33;;;15.50;97.50;;;;;;12762940;23;20184;-84
2023/04/14 20:31:02;;;;;;;14.20;9.27;;;15.50;97.60;;;;;;12761652;23;21003;-84
2023/04/14 20:36:05;;;;;;;16.97;12.10;;;15.40;95.20;;;;;;12761392;23;20172;-84
2023/04/14 20:41:08;;;;;;;17.03;11.20;;;15.40;96.70;;;;;;12788233;23;20175;-84
2023/04/14 20:46:10;;;;;;;15.30;11.67;;;15.50;97.10;;;;;;12786519;23;20242;-82
2023/04/14 20:51:13;;;;;;;13.13;7.87;;;15.30;97.00;;;;;;12787526;23;20191;-83
2023/04/14 20:56:16;;;;;;;17.13;9.93;;;15.00;96.30;;;;;;12788883;23;20184;-83
2023/04/14 21:01:19;;;;;;;16.07;9.43;;;15.00;97.20;;;;;;12736882;23;20549;-82
2023/04/14 21:06:22;;;;;;;12.03;8.50;;;15.00;97.90;;;;;;12786478;23;20504;-83
2023/04/14 21:11:25;;;;;;;11.83;8.30;;;14.90;97.10;;;;;;12788088;23;20270;-83
2023/04/14 21:16:28;;;;;;;13.00;9.17;;;14.80;98.20;;;;;;12788125;23;20711;-83
2023/04/14 21:21:31;;;;;;;12.40;8.73;;;14.80;98.80;;;;;;12788969;23;20172;-82
2023/04/14 21:26:34;;;;;;;11.93;7.90;;;15.00;98.20;;;;;;12791498;23;20184;-82
2023/04/14 21:31:37;;;;;;;16.30;8.43;;;14.70;97.10;;;;;;12783618;23;20255;-83
2023/04/14 21:36:40;;;;;;;13.00;9.10;;;14.70;99.70;;;;;;12791671;23;20503;-83
2023/04/14 21:41:42;;;;;;;14.37;10.40;;;14.70;98.30;;;;;;12808684;23;20219;-84
2023/04/14 21:46:45;;;;;;;18.90;10.73;;;14.70;99.70;;;;;;12791369;23;20180;-83
2023/04/14 21:51:51;;;;;;;12.23;8.40;;;14.60;97.80;;;;;;12790717;23;20179;-83
2023/04/14 21:56:54;;;;;;;12.60;9.73;;;14.60;97.40;;;;;;12764862;23;20578;-83
2023/04/14 22:01:58;;;;;;;12.60;9.70;;;14.40;99.90;;;;;;12765529;23;20191;-83
2023/04/14 22:07:01;;;;;;;10.10;8.63;;;14.00;99.90;;;;;;12791509;23;20214;-83
2023/04/14 22:12:04;;;;;;;14.13;9.13;;;14.30;99.70;;;;;;12790800;23;20284;-83
2023/04/14 22:17:07;;;;;;;14.07;8.47;;;14.50;99.80;;;;;;12791432;23;20238;-83
2023/04/14 22:22:10;;;;;;;11.97;9.40;;;14.10;99.00;;;;;;12764522;23;20238;-84
2023/04/14 22:27:12;;;;;;;10.20;6.30;;;14.40;99.20;;;;;;12742634;23;20210;-83
2023/04/14 22:32:15;;;;;;;10.87;8.33;;;14.30;99.20;;;;;;12795576;23;20195;-83
2023/04/14 22:37:18;;;;;;;11.50;8.83;;;13.80;99.90;;;;;;12794014;23;20646;-83
2023/04/14 22:42:21;;;;;;;15.43;10.10;;;14.30;99.10;;;;;;12794942;23;20179;-83
2023/04/14 22:47:23;;;;;;;11.57;8.17;;;14.40;98.60;;;;;;12795664;23;20183;-83
2023/04/14 22:52:28;;;;;;;10.27;8.03;;;14.20;98.90;;;;;;12769088;23;20569;-83
2023/04/14 22:57:32;;;;;;;12.37;8.23;;;14.50;98.90;;;;;;12794648;23;20251;-83
2023/04/14 23:02:35;;;;;;;14.30;8.40;;;14.10;97.10;;;;;;12793813;23;20549;-83
2023/04/14 23:07:37;;;;;;;11.27;9.50;;;13.70;98.10;;;;;;12809544;23;20231;-83
2023/04/14 23:12:40;;;;;;;13.20;8.43;;;13.60;99.90;;;;;;12794040;23;20183;-83
2023/04/14 23:17:43;;;;;;;13.03;9.97;;;13.90;99.90;;;;;;12769182;23;20238;-83
2023/04/14 23:22:45;;;;;;;10.70;7.73;;;14.20;99.90;;;;;;12793958;23;20243;-83
2023/04/14 23:27:48;;;;;;;11.17;7.73;;;14.30;99.90;;;;;;12793696;23;20235;-83
2023/04/14 23:32:50;;;;;;;16.33;10.23;;;13.80;99.40;;;;;;12794183;23;20202;-83
2023/04/14 23:37:53;;;;;;;10.93;8.03;;;13.70;99.90;;;;;;12792733;23;20188;-83
2023/04/14 23:42:57;;;;;;;11.33;8.67;;;14.00;99.90;;;;;;12794377;23;20219;-83
2023/04/14 23:48:05;;;;;;;9.23;8.03;;;13.70;98.40;;;;;;12810788;23;20664;-84
2023/04/14 23:53:08;;;;;;;8.83;6.80;;;13.70;98.30;;;;;;12793426;23;20211;-84
2023/04/14 23:58:11;;;;;;;15.13;9.87;;;14.00;99.70;;;;;;12793584;23;20203;-84
